Time;durP1;ratioP1;P1;durP2;ratioP2;P2;SDS_P1;SDS_P2;PMS_P1;PMS_P2;Temp;Humidity;BMP_temperature;BMP_pressure;BME280_temperature;BME280_humidity;BME280_pressure;Samples;Min_cycle;Max_cycle;Signal;HPM_P1;HPM_P2
2020/12/17 00:02:01;;;;;;;12.35;8.77;;;4.30;99.90;;;;;;5095822;28;20032;-77
2020/12/17 00:04:28;;;;;;;13.35;8.00;;;4.60;99.90;;;;;;5095814;28;20024;-77
2020/12/17 00:06:54;;;;;;;11.85;8.57;;;4.60;99.90;;;;;;5095664;28;20035;-78
2020/12/17 00:09:20;;;;;;;12.48;8.82;;;4.50;99.90;;;;;;5095686;28;20418;-77
2020/12/17 00:11:46;;;;;;;14.00;9.00;;;4.30;99.90;;;;;;5077490;28;20111;-77
2020/12/17 00:14:12;;;;;;;10.95;7.97;;;4.40;99.90;;;;;;5095875;28;20024;-77
2020/12/17 00:16:39;;;;;;;17.58;8.95;;;4.40;99.90;;;;;;5095467;28;20024;-77
2020/12/17 00:19:08;;;;;;;13.93;9.43;;;4.40;99.90;;;;;;5095278;28;20048;-77
2020/12/17 00:21:37;;;;;;;11.57;8.05;;;4.50;99.90;;;;;;5077308;28;20017;-77
2020/12/17 00:24:03;;;;;;;14.40;8.85;;;4.70;99.90;;;;;;5095424;28;20028;-77
2020/12/17 00:26:30;;;;;;;13.63;8.95;;;4.70;99.90;;;;;;5077241;28;20115;-77
2020/12/17 00:28:55;;;;;;;10.48;7.85;;;4.70;99.90;;;;;;5077099;28;20031;-77
2020/12/17 00:31:22;;;;;;;12.18;8.95;;;4.70;99.90;;;;;;5095235;28;20028;-77
2020/12/17 00:33:48;;;;;;;12.27;8.48;;;4.70;99.90;;;;;;5095197;28;20031;-77
2020/12/17 00:36:22;;;;;;;12.05;8.65;;;4.50;99.90;;;;;;5095157;28;20103;-77
2020/12/17 00:38:48;;;;;;;13.15;8.65;;;4.30;99.90;;;;;;5076978;28;20039;-77
2020/12/17 00:41:14;;;;;;;10.40;7.65;;;4.20;99.90;;;;;;5095054;28;20028;-77
2020/12/17 00:43:41;;;;;;;12.55;8.73;;;4.20;99.90;;;;;;5076888;28;20066;-77
2020/12/17 00:46:07;;;;;;;14.35;8.13;;;4.20;99.90;;;;;;5076787;28;20028;-77
2020/12/17 00:48:33;;;;;;;13.35;9.63;;;4.30;99.90;;;;;;5076656;28;20063;-77
2020/12/17 00:51:00;;;;;;;11.60;8.27;;;4.20;99.90;;;;;;5094875;28;20471;-77
2020/12/17 00:53:25;;;;;;;12.70;7.90;;;4.30;99.90;;;;;;5076596;28;20116;-77
2020/12/17 00:55:51;;;;;;;12.55;8.88;;;4.20;99.90;;;;;;5095102;28;20047;-77
2020/12/17 00:58:17;;;;;;;12.07;8.27;;;4.10;99.90;;;;;;5076584;28;20031;-77
2020/12/17 01:00:42;;;;;;;11.82;7.90;;;4.10;99.90;;;;;;5094964;28;20111;-77
2020/12/17 01:03:08;;;;;;;11.63;7.47;;;4.00;99.90;;;;;;5094643;28;20020;-77
2020/12/17 01:05:34;;;;;;;11.65;8.65;;;4.00;99.90;;;;;;5094865;28;20110;-77
2020/12/17 01:07:59;;;;;;;12.85;7.90;;;4.00;99.90;;;;;;5094764;28;20064;-77
2020/12/17 01:10:25;;;;;;;13.38;8.15;;;4.10;99.90;;;;;;5076340;28;20032;-77
2020/12/17 01:12:51;;;;;;;12.68;8.27;;;3.90;99.90;;;;;;5094727;28;20065;-77
2020/12/17 01:15:16;;;;;;;15.60;8.43;;;3.90;99.90;;;;;;5076278;28;20028;-77
2020/12/17 01:17:42;;;;;;;15.55;9.40;;;3.80;99.90;;;;;;5094326;28;20020;-77
2020/12/17 01:20:08;;;;;;;12.38;8.80;;;3.90;99.90;;;;;;5094195;28;20055;-77
2020/12/17 01:22:34;;;;;;;11.95;8.40;;;3.90;99.90;;;;;;5094354;28;20028;-78
2020/12/17 01:24:59;;;;;;;12.90;8.93;;;3.80;99.90;;;;;;5076059;28;20024;-77
2020/12/17 01:27:29;;;;;;;11.68;8.00;;;3.80;99.90;;;;;;5094110;28;20032;-77
2020/12/17 01:29:55;;;;;;;12.77;8.50;;;3.90;99.90;;;;;;5077100;28;20106;-78
2020/12/17 01:32:21;;;;;;;13.30;8.05;;;4.10;99.90;;;;;;5094097;28;20024;-77
2020/12/17 01:34:46;;;;;;;13.23;8.00;;;4.20;99.90;;;;;;5075984;28;20031;-77
2020/12/17 01:37:12;;;;;;;14.40;8.00;;;4.20;99.90;;;;;;5075890;28;20472;-77
2020/12/17 01:39:38;;;;;;;14.95;8.85;;;4.30;99.90;;;;;;5075824;28;20475;-77
2020/12/17 01:42:04;;;;;;;14.93;8.80;;;4.10;99.90;;;;;;5075427;28;20032;-77
2020/12/17 01:44:29;;;;;;;14.38;9.30;;;4.00;99.90;;;;;;5094266;28;20077;-77
2020/12/17 01:46:55;;;;;;;14.40;8.90;;;3.80;99.90;;;;;;5075697;28;20059;-77
2020/12/17 01:49:24;;;;;;;13.70;8.35;;;3.70;99.90;;;;;;5093865;28;20425;-77
2020/12/17 01:51:51;;;;;;;16.38;9.15;;;3.70;99.90;;;;;;5093838;28;20058;-77
2020/12/17 01:54:17;;;;;;;13.15;8.35;;;3.70;99.90;;;;;;5075688;28;20476;-77
2020/12/17 01:56:47;;;;;;;10.85;7.65;;;3.70;99.90;;;;;;5075667;28;20030;-77
2020/12/17 01:59:23;;;;;;;12.43;7.75;;;4.00;99.90;;;;;;5093774;28;20016;-77
2020/12/17 02:01:51;;;;;;;10.77;7.50;;;4.10;99.90;;;;;;5075886;28;20069;-77
2020/12/17 02:04:24;;;;;;;13.10;7.88;;;4.10;99.90;;;;;;5075597;28;20024;-77
2020/12/17 02:06:51;;;;;;;12.32;7.90;;;4.20;99.90;;;;;;5093650;28;20020;-77
2020/12/17 02:09:18;;;;;;;10.60;7.10;;;4.20;99.90;;;;;;5093682;28;20016;-77
2020/12/17 02:11:57;;;;;;;10.85;7.32;;;4.20;99.90;;;;;;5093635;28;20585;-78
2020/12/17 02:14:23;;;;;;;14.43;8.30;;;4.20;99.90;;;;;;5075495;28;20024;-77
2020/12/17 02:16:50;;;;;;;10.75;7.22;;;4.00;99.90;;;;;;5075406;28;20467;-77
2020/12/17 02:19:16;;;;;;;15.60;10.32;;;3.90;99.90;;;;;;5093587;28;20044;-77
2020/12/17 02:21:42;;;;;;;14.07;9.30;;;4.10;99.90;;;;;;5093517;28;20494;-78
2020/12/17 02:24:08;;;;;;;11.77;8.23;;;4.20;99.90;;;;;;5093499;28;20474;-78
2020/12/17 02:26:33;;;;;;;14.43;8.65;;;4.20;99.90;;;;;;5093512;28;20030;-77
2020/12/17 02:28:59;;;;;;;16.67;10.50;;;4.10;99.90;;;;;;5093387;28;20024;-77
2020/12/17 02:31:26;;;;;;;17.90;11.98;;;4.20;99.90;;;;;;5075334;28;20356;-77
2020/12/17 02:33:52;;;;;;;13.68;9.75;;;4.50;99.90;;;;;;5093392;28;20024;-77
2020/12/17 02:36:18;;;;;;;17.08;12.60;;;4.60;99.90;;;;;;5093675;28;20459;-77
2020/12/17 02:38:45;;;;;;;25.25;16.88;;;4.80;99.90;;;;;;5093355;28;20028;-77
2020/12/17 02:41:11;;;;;;;22.40;15.63;;;5.10;99.90;;;;;;5075175;28;20088;-76
2020/12/17 02:43:40;;;;;;;19.83;14.38;;;5.10;99.90;;;;;;5093565;28;20525;-77
2020/12/17 02:46:06;;;;;;;26.52;16.63;;;5.10;99.90;;;;;;5075116;28;20031;-77
2020/12/17 02:48:32;;;;;;;20.38;13.25;;;5.20;99.90;;;;;;5093215;28;20107;-77
2020/12/17 02:50:58;;;;;;;22.77;14.52;;;5.30;99.90;;;;;;5075147;28;20120;-77
2020/12/17 02:53:24;;;;;;;16.08;11.75;;;5.30;99.90;;;;;;5095397;28;20536;-78
2020/12/17 02:55:50;;;;;;;18.85;12.57;;;5.40;99.90;;;;;;5097135;28;20024;-77
2020/12/17 02:58:16;;;;;;;20.73;12.73;;;5.40;99.90;;;;;;5078842;28;20024;-77
2020/12/17 03:00:42;;;;;;;20.02;13.10;;;5.30;99.90;;;;;;5097037;28;20428;-77
2020/12/17 03:03:08;;;;;;;19.30;14.23;;;5.30;99.90;;;;;;5096991;28;20071;-77
2020/12/17 03:05:34;;;;;;;16.00;11.65;;;5.30;99.90;;;;;;5078803;28;20031;-77
2020/12/17 03:08:00;;;;;;;20.00;13.02;;;5.40;99.90;;;;;;5097464;28;20412;-77
2020/12/17 03:10:26;;;;;;;20.05;12.88;;;5.40;99.90;;;;;;5078574;28;20111;-78
2020/12/17 03:12:52;;;;;;;18.90;13.68;;;5.40;99.90;;;;;;5096854;28;20528;-78
2020/12/17 03:15:18;;;;;;;20.10;12.35;;;5.40;99.90;;;;;;5078532;28;20023;-77
2020/12/17 03:17:44;;;;;;;17.50;12.27;;;5.30;99.90;;;;;;5096650;28;20078;-77
2020/12/17 03:20:11;;;;;;;16.17;11.38;;;5.30;99.90;;;;;;5078292;28;20135;-77
2020/12/17 03:22:38;;;;;;;15.88;11.45;;;5.30;99.90;;;;;;5096512;28;20063;-77
2020/12/17 03:25:09;;;;;;;17.23;11.18;;;5.30;99.90;;;;;;5096537;28;20066;-78
2020/12/17 03:27:35;;;;;;;14.70;10.68;;;5.30;99.90;;;;;;5096478;28;20066;-77
2020/12/17 03:30:04;;;;;;;16.23;11.05;;;5.30;99.90;;;;;;5078265;28;20031;-77
2020/12/17 03:32:29;;;;;;;16.85;11.32;;;5.30;99.90;;;;;;5078287;28;20081;-78
2020/12/17 03:34:56;;;;;;;15.95;10.25;;;5.30;99.90;;;;;;5096250;28;20097;-77
2020/12/17 03:37:21;;;;;;;16.17;11.23;;;5.20;99.90;;;;;;5096332;28;20019;-78
2020/12/17 03:39:47;;;;;;;14.73;11.02;;;5.20;99.90;;;;;;5078160;28;20106;-77
2020/12/17 03:42:13;;;;;;;15.43;10.43;;;5.20;99.90;;;;;;5096330;28;20032;-77
2020/12/17 03:44:38;;;;;;;16.48;11.82;;;5.20;99.90;;;;;;5096155;28;20055;-77
2020/12/17 03:47:04;;;;;;;15.02;10.63;;;5.10;99.90;;;;;;5096104;28;20024;-77
2020/12/17 03:49:30;;;;;;;14.65;9.60;;;5.10;99.90;;;;;;5096132;28;20021;-77
2020/12/17 03:51:55;;;;;;;13.63;10.38;;;4.90;99.90;;;;;;5096093;28;20035;-77
2020/12/17 03:54:21;;;;;;;14.00;9.27;;;4.90;99.90;;;;;;5077858;28;20020;-77
2020/12/17 03:56:47;;;;;;;11.85;8.50;;;5.00;99.90;;;;;;5077762;28;20024;-77
2020/12/17 03:59:12;;;;;;;12.02;9.20;;;5.00;99.90;;;;;;5077820;28;20032;-77
2020/12/17 04:01:38;;;;;;;15.45;10.30;;;5.00;99.90;;;;;;5095934;28;20020;-77
2020/12/17 04:04:04;;;;;;;14.20;9.88;;;4.90;99.90;;;;;;5077274;28;20027;-77
2020/12/17 04:06:29;;;;;;;14.43;9.75;;;4.90;99.90;;;;;;5096037;28;20024;-77
2020/12/17 04:08:55;;;;;;;13.95;9.57;;;4.90;99.90;;;;;;5077568;28;20509;-77
2020/12/17 04:11:21;;;;;;;11.50;8.80;;;4.90;99.90;;;;;;5095792;28;20435;-77
2020/12/17 04:13:46;;;;;;;14.00;9.50;;;4.90;99.90;;;;;;5077646;28;20024;-77
2020/12/17 04:16:12;;;;;;;11.85;8.98;;;4.80;99.90;;;;;;5095462;28;20433;-77
2020/12/17 04:18:38;;;;;;;12.70;9.02;;;4.60;99.90;;;;;;5095586;28;20495;-77
2020/12/17 04:21:03;;;;;;;12.85;9.05;;;4.60;99.90;;;;;;5095785;28;20070;-78
2020/12/17 04:23:29;;;;;;;14.50;9.85;;;4.70;99.90;;;;;;5095444;28;20103;-78
2020/12/17 04:25:55;;;;;;;11.25;8.48;;;4.80;99.90;;;;;;5095385;28;20111;-77
2020/12/17 04:28:20;;;;;;;10.88;8.65;;;4.80;99.90;;;;;;5077188;28;20031;-77
2020/12/17 04:30:46;;;;;;;11.77;9.05;;;4.80;99.90;;;;;;5095283;28;20459;-77
2020/12/17 04:33:12;;;;;;;13.25;9.57;;;4.80;99.90;;;;;;5095248;28;20050;-77
2020/12/17 04:35:37;;;;;;;12.60;9.35;;;4.90;99.90;;;;;;5095189;28;20141;-77
2020/12/17 04:38:03;;;;;;;14.48;10.00;;;4.80;99.90;;;;;;5095159;28;20032;-77
2020/12/17 04:40:29;;;;;;;12.82;9.38;;;4.80;99.90;;;;;;5095086;28;20020;-77
2020/12/17 04:42:55;;;;;;;11.80;8.77;;;4.70;99.90;;;;;;5076928;28;20024;-77
2020/12/17 04:45:22;;;;;;;17.40;10.02;;;4.70;99.90;;;;;;5095061;28;20031;-77
2020/12/17 04:47:48;;;;;;;14.23;9.48;;;4.60;99.90;;;;;;5076692;28;20038;-77
2020/12/17 04:50:15;;;;;;;13.55;9.68;;;4.60;99.90;;;;;;5094908;28;20106;-77
2020/12/17 04:52:43;;;;;;;13.00;9.00;;;4.50;99.90;;;;;;5094911;28;20077;-77
2020/12/17 04:55:10;;;;;;;12.25;8.50;;;4.60;99.90;;;;;;5095065;28;20017;-77
2020/12/17 04:57:44;;;;;;;11.10;8.38;;;4.60;99.90;;;;;;5076591;28;20028;-77
2020/12/17 05:00:10;;;;;;;11.85;8.15;;;4.60;99.90;;;;;;5094813;28;20038;-77
2020/12/17 05:02:36;;;;;;;14.57;9.02;;;4.50;99.90;;;;;;5076534;28;20111;-77
2020/12/17 05:05:02;;;;;;;13.23;9.23;;;4.40;99.90;;;;;;5094663;28;20107;-77
2020/12/17 05:07:28;;;;;;;12.40;8.40;;;4.40;99.90;;;;;;5076355;28;20050;-77
2020/12/17 05:09:54;;;;;;;15.23;8.75;;;4.40;99.90;;;;;;5094498;28;20024;-77
2020/12/17 05:12:20;;;;;;;12.23;8.50;;;4.40;99.90;;;;;;5094536;28;20052;-77
2020/12/17 05:14:47;;;;;;;12.15;8.75;;;4.40;99.90;;;;;;5094541;28;20100;-76
2020/12/17 05:17:13;;;;;;;12.20;7.93;;;4.40;99.90;;;;;;5094049;28;20024;-77
2020/12/17 05:19:42;;;;;;;13.55;8.32;;;4.50;99.90;;;;;;5094190;28;20068;-77
2020/12/17 05:22:13;;;;;;;12.85;8.05;;;4.50;99.90;;;;;;5076098;28;20028;-77
2020/12/17 05:24:48;;;;;;;11.02;7.88;;;4.50;99.90;;;;;;5094650;28;20028;-77
2020/12/17 05:27:17;;;;;;;11.75;7.90;;;4.40;99.90;;;;;;5094475;28;20383;-76
2020/12/17 05:29:43;;;;;;;10.75;7.75;;;4.50;99.90;;;;;;5094515;28;20028;-77
2020/12/17 05:32:11;;;;;;;9.55;7.10;;;4.50;99.90;;;;;;5094419;28;20024;-77
2020/12/17 05:34:37;;;;;;;9.85;7.38;;;4.50;99.90;;;;;;5076004;28;20115;-77
2020/12/17 05:37:06;;;;;;;9.85;7.70;;;4.50;99.90;;;;;;5094098;28;20059;-77
2020/12/17 05:39:33;;;;;;;11.02;7.40;;;4.60;99.90;;;;;;5075922;28;20027;-77
2020/12/17 05:41:59;;;;;;;12.15;7.43;;;4.50;99.90;;;;;;5094019;28;20017;-77
2020/12/17 05:44:31;;;;;;;9.77;6.80;;;4.60;99.90;;;;;;5094013;28;20458;-77
2020/12/17 05:46:57;;;;;;;9.18;7.10;;;4.50;99.90;;;;;;5093884;28;20032;-77
2020/12/17 05:49:31;;;;;;;8.98;6.65;;;4.40;99.90;;;;;;5093875;28;20031;-77
2020/12/17 05:52:14;;;;;;;10.18;7.13;;;4.60;99.90;;;;;;5093958;28;20107;-77
2020/12/17 05:54:43;;;;;;;11.90;6.37;;;4.50;99.90;;;;;;5075775;28;20110;-77
2020/12/17 05:57:13;;;;;;;9.60;6.50;;;4.50;99.90;;;;;;5093823;28;20471;-77
2020/12/17 05:59:53;;;;;;;9.63;6.82;;;4.50;99.90;;;;;;5093821;28;20107;-77
2020/12/17 06:02:25;;;;;;;8.23;6.00;;;4.50;99.90;;;;;;5075694;28;20391;-77
2020/12/17 06:05:08;;;;;;;9.57;6.80;;;4.60;99.90;;;;;;5094043;28;20026;-77
2020/12/17 06:07:58;;;;;;;9.55;6.57;;;4.50;99.90;;;;;;5093934;28;20027;-78
2020/12/17 06:10:28;;;;;;;10.45;6.18;;;4.60;99.90;;;;;;5093640;28;20506;-77
2020/12/17 06:13:02;;;;;;;7.85;6.38;;;4.60;99.90;;;;;;5075550;28;20016;-77
2020/12/17 06:15:29;;;;;;;7.65;6.10;;;4.50;99.90;;;;;;5075361;28;20023;-77
2020/12/17 06:17:59;;;;;;;7.82;6.03;;;4.50;99.90;;;;;;5093581;28;20027;-77
2020/12/17 06:20:29;;;;;;;9.70;6.88;;;4.50;99.90;;;;;;5093292;28;20048;-77
2020/12/17 06:22:57;;;;;;;9.50;6.25;;;4.40;99.90;;;;;;5075398;28;20028;-77
2020/12/17 06:25:25;;;;;;;10.50;6.85;;;4.50;99.90;;;;;;5093583;28;20069;-77
2020/12/17 06:27:52;;;;;;;10.18;6.20;;;4.50;99.90;;;;;;5096497;28;20020;-76
2020/12/17 06:30:33;;;;;;;9.32;5.90;;;4.40;99.90;;;;;;5097688;28;20480;-77
2020/12/17 06:33:04;;;;;;;9.35;5.68;;;4.50;99.90;;;;;;5097613;28;20024;-77
2020/12/17 06:35:52;;;;;;;8.27;6.03;;;4.40;99.90;;;;;;5097572;28;20016;-77
2020/12/17 06:38:22;;;;;;;9.25;6.20;;;4.40;99.90;;;;;;5097476;28;20081;-77
2020/12/17 06:40:48;;;;;;;10.93;6.65;;;4.20;99.90;;;;;;5079277;28;20080;-77
2020/12/17 06:43:33;;;;;;;8.55;5.80;;;4.20;99.90;;;;;;5097469;28;20459;-77
2020/12/17 06:46:00;;;;;;;10.48;6.18;;;4.10;99.90;;;;;;5079184;28;20024;-77
2020/12/17 06:48:32;;;;;;;9.85;6.25;;;4.10;99.90;;;;;;5079065;28;20140;-77
2020/12/17 06:50:58;;;;;;;11.30;7.95;;;4.30;99.90;;;;;;5078984;28;20028;-78
2020/12/17 06:53:41;;;;;;;12.15;8.20;;;4.20;99.90;;;;;;5097724;28;20098;-77
2020/12/17 06:56:15;;;;;;;10.02;7.15;;;4.20;99.90;;;;;;5078963;28;20062;-77
2020/12/17 06:58:40;;;;;;;10.45;6.85;;;4.40;99.90;;;;;;5097449;28;20032;-77
2020/12/17 07:01:25;;;;;;;11.00;7.82;;;4.30;99.90;;;;;;5097041;28;20040;-77
2020/12/17 07:03:52;;;;;;;9.88;7.00;;;4.30;99.90;;;;;;5078707;28;20024;-77
2020/12/17 07:06:22;;;;;;;13.70;7.53;;;4.30;99.90;;;;;;5078769;28;20064;-77
2020/12/17 07:08:53;;;;;;;9.25;6.75;;;4.20;99.90;;;;;;5096801;28;20020;-77
2020/12/17 07:11:34;;;;;;;10.52;7.10;;;4.20;99.90;;;;;;5096904;28;20023;-77
2020/12/17 07:14:01;;;;;;;9.30;6.50;;;4.10;99.90;;;;;;5096837;28;20020;-77
2020/12/17 07:16:27;;;;;;;7.93;6.30;;;4.10;99.90;;;;;;5096725;28;20020;-77
2020/12/17 07:19:13;;;;;;;7.35;5.80;;;4.10;99.90;;;;;;5078313;28;20055;-77
2020/12/17 07:21:41;;;;;;;12.27;6.15;;;4.20;99.90;;;;;;5077683;28;20031;-77
2020/12/17 07:24:06;;;;;;;9.32;6.43;;;4.20;99.90;;;;;;5096582;28;20467;-77
2020/12/17 07:26:33;;;;;;;8.82;7.00;;;4.20;99.90;;;;;;5078366;28;20076;-77
2020/12/17 07:28:58;;;;;;;8.50;6.10;;;4.00;99.90;;;;;;5078201;28;20076;-77
2020/12/17 07:31:25;;;;;;;9.57;5.75;;;4.00;99.90;;;;;;5078358;28;20400;-77
2020/12/17 07:33:52;;;;;;;10.57;7.32;;;4.20;99.90;;;;;;5078227;28;20048;-77
2020/12/17 07:36:18;;;;;;;7.93;5.63;;;4.00;99.90;;;;;;5096414;28;20069;-77
2020/12/17 07:38:44;;;;;;;9.77;5.40;;;4.10;99.90;;;;;;5095738;28;20548;-78
2020/12/17 07:41:24;;;;;;;8.82;5.60;;;4.20;99.90;;;;;;5078063;28;20028;-77
2020/12/17 07:43:49;;;;;;;12.13;6.25;;;4.30;99.90;;;;;;5078109;28;20031;-78
2020/12/17 07:46:37;;;;;;;10.20;6.55;;;4.30;99.90;;;;;;5096167;28;20028;-77
2020/12/17 07:49:20;;;;;;;10.35;6.50;;;4.30;99.90;;;;;;5096383;28;20025;-78
2020/12/17 07:51:45;;;;;;;8.60;5.95;;;4.30;99.90;;;;;;5077986;28;20028;-76
2020/12/17 07:54:11;;;;;;;7.13;5.40;;;4.50;99.90;;;;;;5077798;28;20383;-77
2020/12/17 07:56:37;;;;;;;8.05;4.95;;;4.40;99.90;;;;;;5077785;28;20028;-76
2020/12/17 07:59:05;;;;;;;7.78;5.25;;;4.40;99.90;;;;;;5095887;28;20035;-77
2020/12/17 08:01:31;;;;;;;6.75;4.97;;;4.40;99.90;;;;;;5096157;28;20432;-78
2020/12/17 08:03:57;;;;;;;7.18;5.07;;;4.40;99.90;;;;;;5077606;28;20028;-76
2020/12/17 08:06:24;;;;;;;8.60;5.30;;;4.50;99.90;;;;;;5077512;28;20027;-77
2020/12/17 08:09:02;;;;;;;6.32;4.70;;;4.60;99.90;;;;;;5077530;28;20495;-76
2020/12/17 08:11:28;;;;;;;7.32;4.40;;;4.60;99.90;;;;;;5077492;28;20384;-75
2020/12/17 08:14:12;;;;;;;8.02;4.72;;;4.70;99.90;;;;;;5095633;28;20520;-77
2020/12/17 08:16:37;;;;;;;7.38;4.45;;;4.60;99.90;;;;;;5095546;28;20016;-77
2020/12/17 08:19:04;;;;;;;6.07;4.68;;;4.60;99.90;;;;;;5095750;28;20102;-76
2020/12/17 08:21:30;;;;;;;8.18;4.65;;;4.60;99.90;;;;;;5095548;28;20095;-77
2020/12/17 08:23:56;;;;;;;8.23;4.75;;;4.70;99.90;;;;;;5095692;28;20024;-77
2020/12/17 08:26:28;;;;;;;8.77;4.70;;;4.70;99.90;;;;;;5077197;28;20059;-76
2020/12/17 08:28:55;;;;;;;8.95;4.43;;;4.70;99.90;;;;;;5077120;28;20115;-76
2020/12/17 08:31:22;;;;;;;9.05;4.50;;;4.80;99.90;;;;;;5077116;28;20107;-76
2020/12/17 08:33:52;;;;;;;7.05;4.43;;;4.70;99.90;;;;;;5077157;28;20074;-76
2020/12/17 08:36:23;;;;;;;6.80;4.93;;;4.70;99.90;;;;;;5095164;28;20026;-77
2020/12/17 08:39:05;;;;;;;6.00;4.43;;;4.80;99.90;;;;;;5077041;28;20031;-76
2020/12/17 08:41:36;;;;;;;8.13;4.65;;;4.80;99.90;;;;;;5077060;28;20024;-77
2020/12/17 08:44:04;;;;;;;8.68;5.22;;;4.80;99.90;;;;;;5095096;28;20496;-77
2020/12/17 08:46:33;;;;;;;6.10;4.15;;;4.80;99.90;;;;;;5076783;28;20028;-76
2020/12/17 08:49:03;;;;;;;6.05;4.43;;;4.90;99.90;;;;;;5076474;28;20024;-77
2020/12/17 08:51:29;;;;;;;7.13;4.70;;;4.90;99.90;;;;;;5093701;28;20024;-81
2020/12/17 08:53:55;;;;;;;6.78;3.90;;;4.90;99.90;;;;;;5094791;28;20379;-81
2020/12/17 08:56:22;;;;;;;8.07;4.05;;;4.90;99.90;;;;;;5076530;28;20026;-81
2020/12/17 08:59:06;;;;;;;6.15;4.40;;;5.00;99.90;;;;;;5095049;28;20494;-81
2020/12/17 09:01:38;;;;;;;6.97;4.77;;;5.00;99.90;;;;;;5076496;28;20020;-81
2020/12/17 09:04:08;;;;;;;9.38;6.20;;;4.90;99.90;;;;;;5094614;28;20269;-81
2020/12/17 09:06:35;;;;;;;8.73;5.53;;;4.90;99.90;;;;;;5095082;28;20039;-81
2020/12/17 09:09:31;;;;;;;7.25;5.03;;;5.20;99.90;;;;;;5076299;28;20118;-81
2020/12/17 09:11:59;;;;;;;9.57;4.40;;;5.50;99.90;;;;;;5056529;28;20051;-81
2020/12/17 09:14:29;;;;;;;5.97;4.15;;;5.70;99.90;;;;;;5076278;28;20023;-81
2020/12/17 09:17:08;;;;;;;6.93;4.53;;;5.80;99.90;;;;;;5076209;28;20024;-81
2020/12/17 09:19:34;;;;;;;6.20;4.55;;;5.90;99.90;;;;;;5094218;28;20559;-82
2020/12/17 09:22:00;;;;;;;6.88;4.03;;;6.20;99.90;;;;;;5076110;28;20077;-81
2020/12/17 09:24:28;;;;;;;7.18;3.83;;;6.60;99.90;;;;;;5076070;28;20114;-79
2020/12/17 09:26:55;;;;;;;10.27;4.50;;;6.90;99.90;;;;;;5094290;28;20467;-82
2020/12/17 09:29:22;;;;;;;6.25;4.25;;;6.80;99.90;;;;;;5076012;28;20132;-81
2020/12/17 09:31:48;;;;;;;10.45;5.32;;;7.20;99.90;;;;;;5094184;28;20019;-80
2020/12/17 09:34:16;;;;;;;9.30;5.03;;;7.30;99.90;;;;;;5094106;28;20024;-81
2020/12/17 09:36:56;;;;;;;5.97;4.18;;;7.60;99.90;;;;;;5075706;28;20020;-80
2020/12/17 09:39:22;;;;;;;8.70;5.13;;;7.60;99.90;;;;;;5093773;28;20016;-81
2020/12/17 09:41:56;;;;;;;8.63;4.53;;;8.00;99.90;;;;;;5093830;28;20073;-81
2020/12/17 09:44:28;;;;;;;8.13;4.82;;;7.90;99.90;;;;;;5094287;28;20024;-81
2020/12/17 09:46:55;;;;;;;7.55;4.47;;;8.30;99.90;;;;;;5093848;28;20061;-81
2020/12/17 09:49:26;;;;;;;8.23;4.43;;;8.30;99.90;;;;;;5075724;28;20024;-81
2020/12/17 09:52:24;;;;;;;7.45;4.53;;;8.60;99.90;;;;;;5093875;28;20413;-81
2020/12/17 09:54:50;;;;;;;7.80;4.32;;;9.00;99.90;;;;;;5075863;28;20024;-81
2020/12/17 09:57:16;;;;;;;9.15;5.05;;;9.10;99.90;;;;;;5093808;28;20031;-80
2020/12/17 09:59:44;;;;;;;39.05;6.22;;;9.10;99.90;;;;;;5075656;28;20103;-79
2020/12/17 10:02:13;;;;;;;14.88;4.57;;;8.80;99.90;;;;;;5075224;28;20361;-82
2020/12/17 10:04:40;;;;;;;13.13;4.55;;;9.10;99.90;;;;;;5075618;28;20031;-81
2020/12/17 10:07:08;;;;;;;21.25;4.63;;;9.40;99.90;;;;;;5075449;28;20040;-81
2020/12/17 10:09:34;;;;;;;11.52;4.90;;;9.50;99.90;;;;;;5093816;28;20106;-81
2020/12/17 10:12:01;;;;;;;11.20;4.07;;;9.60;99.90;;;;;;5075696;28;20137;-81
2020/12/17 10:14:28;;;;;;;14.90;4.57;;;9.60;99.90;;;;;;5075619;28;20085;-81
2020/12/17 10:17:01;;;;;;;9.00;4.47;;;9.90;99.90;;;;;;5075427;28;20024;-81
2020/12/17 10:19:31;;;;;;;8.55;4.22;;;9.80;99.90;;;;;;5075320;28;20499;-81
2020/12/17 10:22:00;;;;;;;10.57;4.38;;;9.80;99.90;;;;;;5058867;28;20035;-81
2020/12/17 10:24:26;;;;;;;10.07;4.10;;;9.70;99.90;;;;;;5075392;28;20020;-81
2020/12/17 10:26:53;;;;;;;8.82;4.75;;;9.60;99.90;;;;;;5093538;28;20438;-81
2020/12/17 10:29:19;;;;;;;8.48;3.85;;;9.50;99.90;;;;;;5075367;28;20028;-81
2020/12/17 10:31:47;;;;;;;11.30;4.68;;;9.50;99.90;;;;;;5093634;28;20113;-81
2020/12/17 10:34:17;;;;;;;9.77;4.68;;;9.50;99.90;;;;;;5075357;28;20020;-81
2020/12/17 10:36:44;;;;;;;11.20;4.53;;;9.20;99.90;;;;;;5075420;28;20049;-81
2020/12/17 10:39:12;;;;;;;8.38;4.30;;;9.10;99.90;;;;;;5075281;28;20024;-81
2020/12/17 10:41:39;;;;;;;9.32;4.40;;;9.40;99.90;;;;;;5075216;28;20039;-82
2020/12/17 10:44:05;;;;;;;12.90;4.45;;;9.50;99.90;;;;;;5093305;28;20413;-82
2020/12/17 10:46:32;;;;;;;11.48;4.63;;;9.40;99.90;;;;;;5093334;28;20539;-81
2020/12/17 10:48:59;;;;;;;8.93;4.60;;;9.70;99.90;;;;;;5093498;28;20112;-82
2020/12/17 10:51:25;;;;;;;9.35;4.85;;;9.70;99.90;;;;;;5093281;28;20360;-83
2020/12/17 10:53:51;;;;;;;5.63;4.18;;;9.60;99.90;;;;;;5075148;28;20059;-82
2020/12/17 10:56:17;;;;;;;10.52;4.45;;;9.30;99.90;;;;;;5093150;28;20051;-83
2020/12/17 10:58:43;;;;;;;8.52;4.68;;;9.20;99.90;;;;;;5093350;28;20028;-82
2020/12/17 11:01:10;;;;;;;8.52;4.50;;;8.90;99.90;;;;;;5075245;28;20126;-82
2020/12/17 11:03:37;;;;;;;9.80;5.18;;;8.80;99.90;;;;;;5092980;28;20028;-82
2020/12/17 11:06:03;;;;;;;11.70;4.85;;;8.80;99.90;;;;;;5075023;28;20505;-82
2020/12/17 11:08:29;;;;;;;7.78;4.47;;;8.70;99.90;;;;;;5074812;28;20024;-82
2020/12/17 11:10:55;;;;;;;9.13;4.93;;;8.60;99.90;;;;;;5074867;28;20032;-81
2020/12/17 11:13:21;;;;;;;10.10;4.93;;;8.50;99.90;;;;;;5075318;28;20414;-82
2020/12/17 11:15:49;;;;;;;9.60;4.90;;;8.40;99.90;;;;;;5078515;28;20426;-82
2020/12/17 11:18:16;;;;;;;7.32;5.00;;;8.30;99.90;;;;;;5096713;28;20386;-82
2020/12/17 11:20:42;;;;;;;11.50;5.45;;;8.30;99.90;;;;;;5078327;28;20508;-82
2020/12/17 11:23:08;;;;;;;7.97;5.32;;;8.20;99.90;;;;;;5096666;28;20095;-82
2020/12/17 11:25:36;;;;;;;8.95;4.88;;;8.20;99.90;;;;;;5096578;28;20109;-83
2020/12/17 11:28:04;;;;;;;8.68;5.45;;;8.30;99.90;;;;;;5062008;28;20032;-82
2020/12/17 11:30:31;;;;;;;8.32;5.15;;;8.30;99.90;;;;;;5096475;28;20047;-82
2020/12/17 11:32:56;;;;;;;11.88;6.25;;;8.50;99.90;;;;;;5096343;28;20020;-82
2020/12/17 11:35:22;;;;;;;8.90;3.85;;;8.50;99.90;;;;;;5096422;28;20551;-82
2020/12/17 11:37:50;;;;;;;11.02;5.00;;;8.40;99.90;;;;;;5096374;28;20024;-81
2020/12/17 11:40:26;;;;;;;14.38;6.30;;;8.40;99.90;;;;;;5096319;28;20475;-82
2020/12/17 11:42:53;;;;;;;7.95;5.50;;;8.40;99.90;;;;;;5078425;28;20042;-81
2020/12/17 11:45:19;;;;;;;9.73;5.63;;;8.40;99.90;;;;;;5096180;28;20103;-82
2020/12/17 11:47:45;;;;;;;7.35;4.55;;;8.50;99.90;;;;;;5096110;28;20107;-82
2020/12/17 11:50:11;;;;;;;9.55;5.40;;;8.40;99.90;;;;;;5096122;28;20024;-83
2020/12/17 11:52:37;;;;;;;8.93;5.78;;;8.50;99.90;;;;;;5078017;28;20108;-83
2020/12/17 11:55:07;;;;;;;7.95;4.95;;;8.50;99.90;;;;;;5096008;28;20020;-81
2020/12/17 11:57:33;;;;;;;8.73;5.00;;;8.60;99.90;;;;;;5095962;28;20115;-82
2020/12/17 11:59:59;;;;;;;10.88;6.40;;;8.60;99.90;;;;;;5096135;28;20032;-83
2020/12/17 12:02:25;;;;;;;10.77;6.75;;;8.60;99.90;;;;;;5095940;28;20069;-83
2020/12/17 12:04:50;;;;;;;15.75;9.38;;;8.70;99.90;;;;;;5096159;28;20471;-82
2020/12/17 12:07:16;;;;;;;14.30;7.65;;;8.60;99.90;;;;;;5096015;28;20036;-82
2020/12/17 12:09:42;;;;;;;11.60;6.95;;;8.70;99.90;;;;;;5077982;28;20065;-82
2020/12/17 12:12:07;;;;;;;15.10;6.75;;;8.70;99.90;;;;;;5095791;28;20012;-81
2020/12/17 12:14:33;;;;;;;9.77;6.35;;;8.70;99.90;;;;;;5077540;28;20501;-82
2020/12/17 12:16:59;;;;;;;10.27;6.25;;;8.70;99.90;;;;;;5095562;28;20024;-81
2020/12/17 12:19:25;;;;;;;15.35;7.43;;;8.80;99.90;;;;;;5095304;28;20132;-81
2020/12/17 12:21:51;;;;;;;15.45;9.30;;;9.00;99.90;;;;;;5095532;28;20020;-81
2020/12/17 12:24:18;;;;;;;12.05;7.10;;;9.10;99.90;;;;;;5095189;28;20016;-81
2020/12/17 12:26:44;;;;;;;10.63;6.65;;;9.00;99.90;;;;;;5077312;28;20111;-81
2020/12/17 12:29:10;;;;;;;8.27;6.25;;;8.90;99.90;;;;;;5077080;28;20077;-80
2020/12/17 12:31:36;;;;;;;11.63;6.65;;;8.70;99.90;;;;;;5095290;28;20020;-82
2020/12/17 12:34:03;;;;;;;12.18;6.57;;;8.60;99.90;;;;;;5077057;28;20364;-82
2020/12/17 12:36:30;;;;;;;13.00;7.13;;;8.50;99.90;;;;;;5077043;28;20543;-81
2020/12/17 12:38:55;;;;;;;11.02;6.60;;;8.40;99.90;;;;;;5095160;28;20051;-81
2020/12/17 12:41:21;;;;;;;10.82;6.95;;;8.40;99.90;;;;;;5095312;28;20063;-81
2020/12/17 12:43:47;;;;;;;13.10;7.57;;;8.30;99.90;;;;;;5076907;28;20085;-82
2020/12/17 12:46:19;;;;;;;11.90;7.65;;;8.30;99.90;;;;;;5076782;28;20032;-81
2020/12/17 12:48:46;;;;;;;11.13;6.70;;;8.20;99.90;;;;;;5095310;28;20027;-81
2020/12/17 12:51:13;;;;;;;12.30;6.85;;;8.10;99.90;;;;;;5095509;28;20024;-81
2020/12/17 12:53:38;;;;;;;13.85;7.03;;;8.10;99.90;;;;;;5095470;28;20037;-81
2020/12/17 12:56:04;;;;;;;13.38;7.45;;;8.00;99.90;;;;;;5094959;28;20132;-82